createdAt,value
2022-08-28T00:00:39.768Z,15.26
2022-08-28T00:05:41.752Z,15.24
2022-08-28T00:10:43.528Z,15.12
2022-08-28T00:15:45.560Z,14.96
2022-08-28T00:20:47.663Z,14.88
2022-08-28T00:25:49.370Z,15.00
2022-08-28T00:30:52.549Z,14.88
2022-08-28T00:35:54.842Z,14.67
2022-08-28T00:40:59.890Z,14.60
2022-08-28T00:46:02.575Z,14.55
2022-08-28T00:51:23.220Z,14.49
2022-08-28T00:56:24.888Z,14.47
2022-08-28T01:01:26.558Z,14.42
2022-08-28T01:06:28.252Z,14.40
2022-08-28T01:11:29.917Z,14.38
2022-08-28T01:16:33.745Z,14.33
2022-08-28T01:21:49.437Z,14.29
2022-08-28T01:26:51.123Z,14.24
2022-08-28T01:31:52.791Z,14.27
2022-08-28T01:36:54.468Z,14.23
2022-08-28T01:41:56.234Z,14.15
2022-08-28T01:46:58.548Z,14.16
2022-08-28T01:52:00.672Z,14.12
2022-08-28T01:57:05.136Z,14.13
2022-08-28T02:02:06.894Z,14.03
2022-08-28T02:07:08.604Z,13.96
2022-08-28T02:12:10.358Z,13.99
2022-08-28T02:17:12.831Z,13.95
2022-08-28T02:22:14.520Z,13.78
2022-08-28T02:27:16.219Z,13.83
2022-08-28T02:32:18.535Z,13.79
2022-08-28T02:37:21.470Z,13.61
2022-08-28T02:42:23.160Z,13.52
2022-08-28T02:47:24.813Z,13.49
2022-08-28T02:52:26.972Z,13.45
2022-08-28T02:57:29.909Z,13.46
2022-08-28T03:02:31.804Z,13.47
2022-08-28T03:07:33.554Z,13.50
2022-08-28T03:12:35.481Z,13.45
2022-08-28T03:17:37.146Z,13.36
2022-08-28T03:22:57.261Z,13.30
2022-08-28T03:27:58.952Z,13.20
2022-08-28T03:33:01.128Z,13.19
2022-08-28T03:38:03.127Z,13.18
2022-08-28T03:43:04.818Z,13.16
2022-08-28T03:48:08.885Z,13.13
2022-08-28T03:53:11.068Z,13.09
2022-08-28T03:58:18.800Z,13.17
2022-08-28T04:03:21.450Z,13.12
2022-08-28T04:08:23.444Z,13.10
2022-08-28T04:13:25.187Z,13.16
2022-08-28T04:18:27.516Z,13.24
2022-08-28T04:23:29.719Z,13.17
2022-08-28T04:28:32.580Z,13.17
2022-08-28T04:33:34.344Z,13.19
2022-08-28T04:38:39.276Z,13.13
2022-08-28T04:43:44.774Z,13.02
2022-08-28T04:48:46.481Z,13.07
2022-08-28T04:53:48.157Z,13.10
2022-08-28T04:58:49.863Z,13.14
2022-08-28T05:03:57.711Z,13.16
2022-08-28T05:09:00.642Z,12.99
2022-08-28T05:14:04.433Z,13.12
2022-08-28T05:19:06.356Z,13.14
2022-08-28T05:24:08.791Z,13.19
2022-08-28T05:29:10.540Z,13.17
2022-08-28T05:34:12.208Z,13.33
2022-08-28T05:39:13.887Z,13.37
2022-08-28T05:44:16.350Z,13.41
2022-08-28T05:49:18.946Z,13.47
2022-08-28T05:54:20.612Z,13.59
2022-08-28T05:59:22.285Z,13.66
2022-08-28T06:04:26.657Z,13.75
2022-08-28T06:09:29.921Z,13.89
2022-08-28T06:14:31.928Z,13.98
2022-08-28T06:19:37.199Z,14.10
2022-08-28T06:24:41.109Z,14.20
2022-08-28T06:29:44.617Z,14.30
2022-08-28T06:34:46.276Z,14.35
2022-08-28T06:39:47.940Z,14.61
2022-08-28T06:44:49.613Z,14.76
2022-08-28T06:49:51.309Z,14.83
2022-08-28T06:54:55.444Z,15.02
2022-08-28T06:59:57.868Z,15.22
2022-08-28T07:05:00.387Z,15.58
2022-08-28T07:10:02.066Z,15.82
2022-08-28T07:15:04.884Z,15.91
2022-08-28T07:20:07.246Z,15.98
2022-08-28T07:25:09.341Z,16.10
2022-08-28T07:30:13.108Z,16.20
2022-08-28T07:35:16.157Z,16.29
2022-08-28T07:40:20.109Z,16.29
2022-08-28T07:45:21.903Z,16.38
2022-08-28T07:50:23.614Z,16.50
2022-08-28T07:55:27.544Z,16.54
2022-08-28T08:00:30.142Z,16.71
2022-08-28T08:05:31.821Z,16.76
2022-08-28T08:10:34.283Z,16.91
2022-08-28T08:15:36.130Z,17.00
2022-08-28T08:20:38.417Z,17.00
2022-08-28T08:25:40.132Z,17.13
2022-08-28T08:30:41.823Z,17.17
2022-08-28T08:35:43.552Z,17.18
2022-08-28T08:40:45.531Z,17.46
2022-08-28T08:45:47.283Z,17.48
2022-08-28T08:50:48.961Z,17.58
2022-08-28T08:55:52.140Z,17.66
2022-08-28T09:00:58.661Z,17.67
2022-08-28T09:06:02.256Z,17.70
2022-08-28T09:11:19.677Z,17.60
2022-08-28T09:16:28.892Z,17.73
2022-08-28T09:21:35.163Z,17.81
2022-08-28T09:26:36.854Z,17.77
2022-08-28T09:31:39.238Z,17.84
2022-08-28T09:36:40.908Z,17.99
2022-08-28T09:42:32.670Z,17.94
2022-08-28T09:47:56.785Z,18.09
2022-08-28T09:53:09.086Z,18.20
2022-08-28T09:58:10.761Z,18.11
2022-08-28T10:03:31.435Z,18.37
2022-08-28T10:08:50.580Z,18.47
2022-08-28T10:14:28.622Z,18.57
2022-08-28T10:19:59.468Z,18.66
2022-08-28T10:25:28.902Z,18.81
2022-08-28T10:30:30.825Z,18.83
2022-08-28T10:35:52.092Z,18.98
2022-08-28T10:41:03.329Z,19.06
2022-08-28T10:46:08.674Z,19.04
2022-08-28T10:51:35.415Z,19.21
2022-08-28T10:56:56.671Z,19.50
2022-08-28T11:01:58.563Z,19.48
2022-08-28T11:07:03.535Z,19.62
2022-08-28T11:12:07.456Z,19.69
2022-08-28T11:17:33.438Z,19.69
2022-08-28T11:22:55.255Z,19.68
2022-08-28T11:28:36.897Z,19.80
2022-08-28T11:33:40.705Z,19.97
2022-08-28T11:38:42.224Z,20.15
2022-08-28T11:43:44.927Z,20.25
2022-08-28T11:48:51.689Z,20.15
2022-08-28T11:54:13.609Z,20.39
2022-08-28T11:59:35.618Z,20.71
2022-08-28T12:04:41.761Z,20.99
2022-08-28T12:09:45.144Z,21.43
2022-08-28T12:14:46.641Z,21.59
2022-08-28T12:20:10.778Z,22.16
2022-08-28T12:25:24.512Z,22.51
2022-08-28T12:30:44.242Z,22.90
2022-08-28T12:35:46.105Z,22.80
2022-08-28T12:40:53.417Z,22.93
2022-08-28T12:45:56.333Z,23.27
2022-08-28T12:51:05.805Z,23.04
2022-08-28T12:56:11.491Z,22.80
2022-08-28T13:01:32.505Z,23.17
2022-08-28T13:06:36.530Z,23.48
2022-08-28T13:11:38.656Z,23.95
2022-08-28T13:16:42.144Z,23.87
2022-08-28T13:21:46.548Z,23.53
2022-08-28T13:26:49.330Z,23.53
2022-08-28T13:32:00.760Z,23.49
2022-08-28T13:37:20.245Z,23.58
2022-08-28T13:42:22.547Z,23.26
2022-08-28T13:47:25.298Z,23.23
2022-08-28T13:52:27.164Z,22.85
2022-08-28T13:57:28.940Z,23.04
2022-08-28T14:02:48.934Z,22.54
2022-08-28T14:07:51.004Z,23.03
2022-08-28T14:12:52.703Z,24.02
2022-08-28T14:17:54.405Z,25.34
2022-08-28T14:22:56.127Z,25.62
2022-08-28T14:27:57.856Z,25.10
2022-08-28T14:32:59.538Z,25.15
2022-08-28T14:38:02.414Z,25.11
2022-08-28T14:43:05.496Z,24.85
2022-08-28T14:48:07.250Z,24.65
2022-08-28T14:53:09.670Z,25.28
2022-08-28T14:58:11.616Z,25.56
2022-08-28T15:03:13.762Z,26.55
2022-08-28T15:08:16.241Z,26.58
2022-08-28T15:13:17.909Z,26.33
2022-08-28T15:18:23.827Z,26.09
2022-08-28T15:23:25.516Z,25.57
2022-08-28T15:28:27.185Z,25.54
2022-08-28T15:33:28.840Z,25.76
2022-08-28T15:38:53.334Z,25.65
2022-08-28T15:44:00.306Z,25.79
2022-08-28T15:49:03.916Z,25.25
2022-08-28T15:54:10.337Z,25.46
2022-08-28T15:59:12.214Z,25.46
2022-08-28T16:04:15.008Z,24.99
2022-08-28T16:09:16.674Z,24.78
2022-08-28T16:14:21.034Z,24.39
2022-08-28T16:19:22.873Z,24.23
2022-08-28T16:24:24.542Z,24.48
2022-08-28T16:29:26.310Z,24.41
2022-08-28T16:34:31.351Z,24.06
2022-08-28T16:39:33.336Z,23.63
2022-08-28T16:44:35.183Z,23.46
2022-08-28T16:49:36.849Z,23.64
2022-08-28T16:54:38.537Z,23.50
2022-08-28T16:59:52.977Z,23.41
2022-08-28T17:04:55.299Z,22.91
2022-08-28T17:09:56.968Z,22.71
2022-08-28T17:14:58.616Z,22.52
2022-08-28T17:20:00.288Z,22.34
2022-08-28T17:25:07.652Z,22.10
2022-08-28T17:30:10.957Z,22.00
2022-08-28T17:35:12.721Z,21.68
2022-08-28T17:40:15.697Z,21.60
2022-08-28T17:45:17.473Z,21.43
2022-08-28T17:50:19.251Z,21.27
2022-08-28T17:55:21.080Z,21.03
2022-08-28T18:00:22.972Z,20.85
2022-08-28T18:05:24.740Z,20.49
2022-08-28T18:10:27.633Z,20.11
2022-08-28T18:15:29.328Z,19.93
2022-08-28T18:20:31.026Z,19.69
2022-08-28T18:25:41.693Z,19.62
2022-08-28T18:30:46.030Z,19.51
2022-08-28T18:35:49.411Z,19.33
2022-08-28T18:40:53.427Z,19.07
2022-08-28T18:45:55.508Z,18.83
2022-08-28T18:50:57.437Z,18.61
2022-08-28T18:55:59.139Z,18.48
2022-08-28T19:01:04.423Z,18.36
2022-08-28T19:06:06.507Z,18.30
2022-08-28T19:11:09.488Z,18.16
2022-08-28T19:16:16.998Z,18.04
2022-08-28T19:21:19.804Z,17.90
2022-08-28T19:26:21.527Z,17.74
2022-08-28T19:31:24.305Z,17.61
2022-08-28T19:36:27.423Z,17.54
2022-08-28T19:41:29.817Z,17.49
2022-08-28T19:46:31.635Z,17.34
2022-08-28T19:51:34.649Z,17.24
2022-08-28T19:56:37.281Z,17.10
2022-08-28T20:01:41.433Z,17.02
2022-08-28T20:06:44.050Z,16.93
2022-08-28T20:11:46.879Z,16.82
2022-08-28T20:16:50.775Z,16.73
2022-08-28T20:21:52.608Z,16.70
2022-08-28T20:26:54.312Z,16.56
2022-08-28T20:31:55.968Z,16.38
2022-08-28T20:36:57.632Z,16.32
2022-08-28T20:41:59.319Z,16.27
2022-08-28T20:47:01.315Z,16.26
2022-08-28T20:52:03.108Z,16.18
2022-08-28T20:57:07.786Z,16.10
2022-08-28T21:02:11.599Z,16.01
2022-08-28T21:07:14.173Z,15.95
2022-08-28T21:12:16.589Z,15.91
2022-08-28T21:17:28.712Z,15.81
2022-08-28T21:22:32.939Z,15.69
2022-08-28T21:27:36.444Z,15.53
2022-08-28T21:32:38.149Z,15.39
2022-08-28T21:37:40.890Z,15.31
2022-08-28T21:42:42.657Z,15.24
2022-08-28T21:47:44.386Z,15.14
2022-08-28T21:52:46.064Z,15.09
2022-08-28T21:57:47.721Z,15.02
2022-08-28T22:02:49.963Z,14.93
2022-08-28T22:07:51.902Z,14.82
2022-08-28T22:12:53.571Z,14.75
2022-08-28T22:17:55.241Z,14.72
2022-08-28T22:23:11.750Z,14.67
2022-08-28T22:28:14.239Z,14.65
2022-08-28T22:33:16.044Z,14.61
2022-08-28T22:38:18.536Z,14.56
2022-08-28T22:43:20.350Z,14.45
2022-08-28T22:48:22.006Z,14.37
2022-08-28T22:53:23.662Z,14.35
2022-08-28T22:58:25.359Z,14.35
2022-08-28T23:03:27.252Z,14.30
2022-08-28T23:08:33.733Z,14.22
2022-08-28T23:13:35.763Z,14.14
2022-08-28T23:19:03.969Z,14.06
2022-08-28T23:23:59.326Z,13.92
2022-08-28T23:29:01.030Z,13.89
2022-08-28T23:34:02.959Z,13.81
2022-08-28T23:39:06.632Z,13.76
2022-08-28T23:44:09.173Z,13.66
2022-08-28T23:49:11.506Z,13.65
2022-08-28T23:54:13.172Z,13.61
2022-08-28T23:59:14.827Z,13.58
